createdAt,value
2022-11-16T00:01:42.591Z,80.30
2022-11-16T00:04:11.949Z,80.86
2022-11-16T00:06:39.462Z,81.21
2022-11-16T00:09:26.329Z,81.27
2022-11-16T00:11:56.667Z,80.27
2022-11-16T00:14:24.330Z,81.63
2022-11-16T00:16:51.617Z,80.74
2022-11-16T00:19:18.538Z,81.44
2022-11-16T00:21:45.169Z,81.43
2022-11-16T00:24:15.321Z,80.37
2022-11-16T00:26:42.326Z,80.83
2022-11-16T00:29:26.057Z,80.24
2022-11-16T00:31:54.160Z,81.66
2022-11-16T00:34:22.370Z,80.81
2022-11-16T00:36:49.324Z,80.86
2022-11-16T00:39:17.272Z,81.22
2022-11-16T00:41:44.832Z,81.36
2022-11-16T00:44:11.998Z,81.76
2022-11-16T00:46:38.974Z,81.44
2022-11-16T00:49:06.173Z,81.22
2022-11-16T00:51:34.529Z,81.67
2022-11-16T00:54:01.763Z,81.71
2022-11-16T00:56:28.316Z,80.64
2022-11-16T00:58:54.873Z,80.87
2022-11-16T01:01:21.550Z,80.70
2022-11-16T01:03:48.269Z,80.62
2022-11-16T01:06:16.217Z,81.80
2022-11-16T01:08:44.690Z,81.87
2022-11-16T01:11:34.473Z,80.79
2022-11-16T01:14:05.167Z,80.65
2022-11-16T01:16:32.240Z,81.70
2022-11-16T01:18:58.878Z,82.19
2022-11-16T01:21:25.627Z,81.28
2022-11-16T01:23:52.535Z,82.08
2022-11-16T01:26:19.404Z,82.28
2022-11-16T01:28:46.140Z,82.23
2022-11-16T01:31:12.854Z,82.39
2022-11-16T01:33:39.555Z,82.44
2022-11-16T01:36:14.541Z,82.05
2022-11-16T01:38:43.524Z,82.02
2022-11-16T01:41:14.745Z,81.81
2022-11-16T01:44:00.101Z,81.09
2022-11-16T01:46:27.841Z,81.17
2022-11-16T01:49:04.155Z,81.39
2022-11-16T01:51:33.054Z,82.13
2022-11-16T01:54:02.701Z,81.25
2022-11-16T01:56:32.551Z,81.82
2022-11-16T01:58:59.350Z,81.53
2022-11-16T02:01:25.971Z,82.12
2022-11-16T02:03:52.554Z,82.71
2022-11-16T02:09:49.564Z,81.97
2022-11-16T02:20:59.092Z,81.78
2022-11-16T02:32:12.142Z,81.78
2022-11-16T02:34:45.222Z,82.72
2022-11-16T02:37:17.593Z,81.98
2022-11-16T02:39:47.658Z,82.98
2022-11-16T02:42:22.153Z,82.85
2022-11-16T02:44:51.648Z,81.88
2022-11-16T02:47:23.079Z,82.05
2022-11-16T02:49:56.333Z,82.69
2022-11-16T02:52:23.773Z,83.45
2022-11-16T02:54:50.343Z,82.68
2022-11-16T02:59:57.484Z,83.40
2022-11-16T03:02:51.338Z,82.34
2022-11-16T03:05:32.028Z,82.54
2022-11-16T03:11:09.259Z,81.60
2022-11-16T03:13:37.524Z,82.78
2022-11-16T03:16:11.744Z,81.73
2022-11-16T03:18:40.689Z,82.21
2022-11-16T03:24:20.644Z,82.52
2022-11-16T03:29:32.789Z,83.18
2022-11-16T03:32:10.692Z,83.04
2022-11-16T03:34:38.864Z,83.36
2022-11-16T03:37:06.457Z,83.92
2022-11-16T03:39:37.788Z,82.61
2022-11-16T03:42:09.425Z,83.37
2022-11-16T03:44:37.124Z,82.30
2022-11-16T03:47:03.693Z,83.38
2022-11-16T03:49:31.457Z,83.23
2022-11-16T03:51:58.846Z,82.00
2022-11-16T03:54:25.456Z,82.70
2022-11-16T03:56:51.993Z,83.41
2022-11-16T03:59:18.536Z,82.29
2022-11-16T04:01:45.178Z,82.99
2022-11-16T04:04:31.926Z,82.05
2022-11-16T04:07:18.500Z,82.55
2022-11-16T04:10:04.975Z,83.40
2022-11-16T04:12:51.810Z,84.06
2022-11-16T04:15:38.275Z,82.97
2022-11-16T04:18:25.015Z,83.41
2022-11-16T04:21:11.832Z,83.47
2022-11-16T04:23:58.303Z,82.98
2022-11-16T04:26:45.136Z,83.99
2022-11-16T04:29:13.693Z,82.61
2022-11-16T04:32:00.190Z,82.80
2022-11-16T04:34:46.693Z,83.21
2022-11-16T04:37:35.705Z,84.23
2022-11-16T04:40:02.463Z,82.59
2022-11-16T04:42:28.998Z,82.46
2022-11-16T04:45:15.478Z,82.27
2022-11-16T04:47:42.063Z,83.55
2022-11-16T04:50:09.221Z,82.24
2022-11-16T04:52:35.832Z,84.02
2022-11-16T04:55:02.431Z,84.16
2022-11-16T04:57:28.964Z,83.85
2022-11-16T04:59:55.550Z,83.48
2022-11-16T05:02:22.165Z,83.43
2022-11-16T05:04:48.885Z,83.79
2022-11-16T05:07:15.773Z,84.33
2022-11-16T05:09:44.936Z,84.35
2022-11-16T05:12:14.883Z,83.62
2022-11-16T05:14:42.841Z,82.87
2022-11-16T05:17:09.848Z,83.72
2022-11-16T05:19:56.376Z,83.51
2022-11-16T05:22:23.496Z,84.36
2022-11-16T05:24:50.276Z,83.09
2022-11-16T05:27:18.160Z,82.84
2022-11-16T05:29:45.625Z,84.44
2022-11-16T05:32:13.459Z,84.20
2022-11-16T05:34:40.202Z,84.93
2022-11-16T05:37:07.371Z,83.29
2022-11-16T05:39:33.999Z,85.32
2022-11-16T05:42:01.005Z,83.34
2022-11-16T05:44:27.601Z,84.33
2022-11-16T05:46:55.241Z,85.01
2022-11-16T05:49:22.309Z,84.60
2022-11-16T05:51:49.071Z,83.90
2022-11-16T05:54:21.009Z,85.11
2022-11-16T05:56:49.335Z,84.60
2022-11-16T05:59:18.636Z,83.96
2022-11-16T06:01:45.698Z,84.50
2022-11-16T06:04:13.025Z,83.64
2022-11-16T06:06:39.654Z,84.72
2022-11-16T06:09:06.678Z,84.21
2022-11-16T06:11:35.930Z,84.20
2022-11-16T06:14:02.877Z,84.65
2022-11-16T06:16:29.423Z,84.04
2022-11-16T06:18:55.958Z,84.07
2022-11-16T06:21:22.562Z,84.45
2022-11-16T06:23:49.214Z,83.60
2022-11-16T06:26:15.806Z,84.28
2022-11-16T06:28:42.509Z,84.30
2022-11-16T06:31:09.143Z,84.91
2022-11-16T06:33:35.839Z,84.21
2022-11-16T06:36:02.445Z,83.99
2022-11-16T06:38:29.331Z,84.54
2022-11-16T06:40:57.978Z,85.06
2022-11-16T06:43:26.048Z,84.58
2022-11-16T06:45:55.464Z,84.38
2022-11-16T06:48:22.723Z,84.94
2022-11-16T06:50:50.808Z,84.73
2022-11-16T06:53:18.159Z,84.74
2022-11-16T06:55:44.755Z,84.09
2022-11-16T06:58:11.317Z,85.68
2022-11-16T07:00:38.140Z,85.86
2022-11-16T07:03:04.976Z,84.65
2022-11-16T07:05:32.426Z,85.30
2022-11-16T07:07:59.074Z,84.34
2022-11-16T07:10:25.944Z,85.70
2022-11-16T07:12:52.497Z,84.05
2022-11-16T07:15:19.639Z,85.40
2022-11-16T07:17:47.011Z,83.74
2022-11-16T07:20:13.565Z,85.37
2022-11-16T07:22:40.111Z,85.13
2022-11-16T07:25:07.357Z,83.25
2022-11-16T07:27:33.939Z,84.48
2022-11-16T07:30:02.215Z,83.05
2022-11-16T07:32:31.070Z,84.00
2022-11-16T07:34:59.385Z,83.25
2022-11-16T07:37:26.252Z,84.33
2022-11-16T07:39:52.846Z,83.71
2022-11-16T07:42:19.404Z,84.95
2022-11-16T07:44:45.946Z,83.30
2022-11-16T07:47:12.535Z,83.92
2022-11-16T07:49:39.155Z,83.50
2022-11-16T07:52:09.439Z,83.74
2022-11-16T07:54:36.747Z,83.37
2022-11-16T07:57:03.386Z,84.36
2022-11-16T07:59:29.918Z,84.83
2022-11-16T08:01:56.711Z,84.70
2022-11-16T08:04:23.512Z,84.54
2022-11-16T08:06:51.790Z,85.64
2022-11-16T08:09:18.580Z,84.53
2022-11-16T08:11:45.195Z,84.91
2022-11-16T08:14:12.060Z,83.43
2022-11-16T08:16:38.779Z,84.01
2022-11-16T08:19:05.365Z,84.67
2022-11-16T08:21:31.919Z,83.89
2022-11-16T08:23:59.112Z,84.33
2022-11-16T08:26:26.099Z,83.90
2022-11-16T08:28:53.935Z,84.30
2022-11-16T08:31:24.216Z,83.87
2022-11-16T08:33:52.070Z,84.74
2022-11-16T08:36:19.253Z,84.18
2022-11-16T08:38:48.481Z,84.31
2022-11-16T08:41:15.701Z,85.00
2022-11-16T08:43:42.811Z,84.73
2022-11-16T08:46:10.513Z,84.12
2022-11-16T08:48:37.858Z,84.35
2022-11-16T08:51:22.252Z,85.07
2022-11-16T08:53:49.794Z,84.65
2022-11-16T08:56:18.596Z,83.64
2022-11-16T08:58:47.430Z,81.16
2022-11-16T09:01:17.221Z,80.18
2022-11-16T09:03:44.953Z,78.78
2022-11-16T09:06:12.755Z,77.85
2022-11-16T09:08:41.944Z,78.12
2022-11-16T09:11:11.635Z,78.86
2022-11-16T09:13:38.589Z,78.07
2022-11-16T09:16:05.594Z,76.07
2022-11-16T09:18:32.926Z,75.94
2022-11-16T09:20:59.657Z,73.58
2022-11-16T09:23:26.342Z,72.81
2022-11-16T09:25:54.551Z,70.62
2022-11-16T09:28:22.159Z,69.15
2022-11-16T09:30:51.016Z,69.49
2022-11-16T09:33:17.793Z,68.78
2022-11-16T09:35:44.487Z,68.03
2022-11-16T09:38:14.865Z,66.90
2022-11-16T09:40:47.869Z,65.89
2022-11-16T09:43:44.151Z,62.99
2022-11-16T09:46:35.817Z,64.32
2022-11-16T09:49:17.385Z,62.62
2022-11-16T09:51:49.092Z,64.27
2022-11-16T09:54:21.289Z,65.00
2022-11-16T09:56:51.720Z,65.29
2022-11-16T09:59:24.770Z,66.07
2022-11-16T10:02:16.511Z,66.15
2022-11-16T10:05:10.610Z,66.42
2022-11-16T10:07:44.762Z,67.54
2022-11-16T10:10:16.980Z,68.83
2022-11-16T10:21:37.913Z,70.25
2022-11-16T10:29:50.688Z,72.49
2022-11-16T10:32:57.070Z,72.28
2022-11-16T10:38:04.196Z,73.62
2022-11-16T10:40:38.950Z,72.25
2022-11-16T10:43:24.603Z,73.13
2022-11-16T10:46:00.476Z,72.37
2022-11-16T10:51:24.226Z,73.10
2022-11-16T10:53:53.055Z,72.13
2022-11-16T10:56:27.500Z,72.87
2022-11-16T11:06:59.750Z,72.96
2022-11-16T11:09:36.851Z,72.99
2022-11-16T11:12:34.447Z,73.45
2022-11-16T11:17:47.828Z,72.68
2022-11-16T11:25:54.105Z,73.26
2022-11-16T11:33:48.672Z,72.23
2022-11-16T11:36:20.563Z,71.92
2022-11-16T11:44:58.786Z,72.64
2022-11-16T11:55:36.245Z,71.23
2022-11-16T11:58:04.650Z,72.60
2022-11-16T12:00:58.150Z,71.40
2022-11-16T12:06:22.559Z,72.03
2022-11-16T12:19:49.781Z,71.34
2022-11-16T12:30:24.166Z,71.53
2022-11-16T12:33:30.574Z,69.57
2022-11-16T13:00:14.794Z,69.65
2022-11-16T13:05:58.416Z,69.75
2022-11-16T13:08:43.531Z,70.74
2022-11-16T13:11:19.728Z,69.84
2022-11-16T13:13:53.635Z,71.41
2022-11-16T13:16:21.996Z,71.21
2022-11-16T13:18:48.689Z,70.53
2022-11-16T13:24:04.735Z,70.31
2022-11-16T13:26:55.230Z,70.71
2022-11-16T13:29:48.234Z,71.28
2022-11-16T13:32:42.784Z,70.89
2022-11-16T13:35:15.819Z,70.00
2022-11-16T13:40:25.344Z,71.41
2022-11-16T13:48:28.355Z,71.09
2022-11-16T13:50:58.519Z,71.33
2022-11-16T13:56:16.048Z,71.66
2022-11-16T13:58:48.056Z,70.61
2022-11-16T14:01:15.797Z,70.93
2022-11-16T14:09:00.159Z,71.30
2022-11-16T14:11:42.943Z,71.07
2022-11-16T14:14:13.545Z,71.73
2022-11-16T14:25:06.734Z,71.77
2022-11-16T14:27:50.597Z,71.61
2022-11-16T14:30:22.815Z,72.36
2022-11-16T14:32:52.718Z,72.09
2022-11-16T14:35:40.002Z,72.83
2022-11-16T14:38:17.937Z,72.61
2022-11-16T14:40:47.336Z,73.33
2022-11-16T14:43:20.598Z,73.66
2022-11-16T14:45:53.385Z,73.15
2022-11-16T14:48:22.242Z,73.61
2022-11-16T14:51:03.633Z,72.74
2022-11-16T14:53:32.208Z,73.45
2022-11-16T14:56:10.869Z,74.02
2022-11-16T14:58:38.363Z,73.52
2022-11-16T15:01:12.769Z,74.29
2022-11-16T15:03:48.493Z,73.93
2022-11-16T15:06:16.202Z,74.50
2022-11-16T15:08:48.632Z,74.63
2022-11-16T15:11:47.154Z,74.82
2022-11-16T15:14:18.745Z,74.20
2022-11-16T15:16:51.790Z,75.03
2022-11-16T15:19:19.023Z,74.90
2022-11-16T15:21:55.820Z,74.85
2022-11-16T15:24:30.368Z,74.70
2022-11-16T15:27:09.566Z,75.07
2022-11-16T15:29:36.788Z,75.10
2022-11-16T15:32:03.685Z,74.87
2022-11-16T15:34:31.278Z,74.26
2022-11-16T15:36:57.817Z,74.73
2022-11-16T15:39:31.998Z,74.88
2022-11-16T15:42:03.478Z,75.04
2022-11-16T15:44:31.076Z,75.02
2022-11-16T15:46:58.950Z,75.01
2022-11-16T15:52:02.114Z,75.48
2022-11-16T15:54:51.083Z,75.99
2022-11-16T15:57:19.237Z,76.04
2022-11-16T15:59:51.803Z,75.93
2022-11-16T16:02:20.525Z,75.91
2022-11-16T16:04:47.286Z,75.52
2022-11-16T16:07:36.033Z,76.21
2022-11-16T16:12:57.359Z,76.15
2022-11-16T16:18:01.823Z,76.26
2022-11-16T16:20:31.116Z,75.77
2022-11-16T16:23:07.739Z,75.78
2022-11-16T16:25:34.824Z,76.78
2022-11-16T16:28:01.971Z,75.94
2022-11-16T16:30:30.053Z,76.65
2022-11-16T16:32:56.718Z,76.46
2022-11-16T16:35:25.285Z,75.91
2022-11-16T16:37:57.543Z,76.27
2022-11-16T16:40:24.279Z,76.26
2022-11-16T16:42:51.238Z,77.16
2022-11-16T16:45:21.597Z,77.14
2022-11-16T16:47:48.244Z,76.93
2022-11-16T16:50:14.960Z,76.75
2022-11-16T16:52:41.509Z,76.76
2022-11-16T16:55:08.469Z,77.09
2022-11-16T16:57:35.031Z,77.41
2022-11-16T17:00:01.710Z,77.06
2022-11-16T17:02:28.382Z,77.45
2022-11-16T17:04:55.077Z,76.99
2022-11-16T17:07:21.659Z,77.81
2022-11-16T17:09:48.339Z,76.94
2022-11-16T17:12:14.862Z,77.52
2022-11-16T17:14:41.401Z,77.41
2022-11-16T17:17:07.952Z,77.31
2022-11-16T17:19:34.532Z,77.74
2022-11-16T17:22:01.076Z,77.95
2022-11-16T17:24:27.596Z,78.17
2022-11-16T17:26:54.145Z,78.14
2022-11-16T17:29:20.671Z,77.87
2022-11-16T17:31:47.713Z,78.00
2022-11-16T17:34:14.611Z,78.41
2022-11-16T17:36:42.206Z,78.89
2022-11-16T17:39:09.060Z,79.06
2022-11-16T17:41:35.645Z,78.62
2022-11-16T17:44:02.436Z,78.99
2022-11-16T17:46:29.198Z,79.20
2022-11-16T17:48:56.446Z,79.15
2022-11-16T17:51:25.054Z,79.74
2022-11-16T17:53:52.193Z,79.16
2022-11-16T17:56:21.678Z,79.37
2022-11-16T17:58:50.333Z,79.39
2022-11-16T18:01:17.080Z,79.68
2022-11-16T18:03:43.651Z,79.50
2022-11-16T18:06:13.630Z,79.43
2022-11-16T18:08:41.424Z,79.85
2022-11-16T18:11:10.999Z,80.15
2022-11-16T18:13:38.418Z,79.92
2022-11-16T18:16:08.177Z,80.71
2022-11-16T18:18:35.113Z,80.55
2022-11-16T18:21:02.301Z,80.23
2022-11-16T18:23:31.044Z,80.07
2022-11-16T18:25:57.697Z,81.02
2022-11-16T18:28:24.277Z,80.51
2022-11-16T18:30:51.397Z,80.96
2022-11-16T18:33:18.581Z,80.90
2022-11-16T18:35:45.116Z,80.22
2022-11-16T18:38:13.169Z,81.04
2022-11-16T18:40:40.867Z,80.56
2022-11-16T18:43:13.090Z,80.92
2022-11-16T18:45:39.663Z,80.63
2022-11-16T18:48:06.306Z,81.01
2022-11-16T18:50:32.950Z,80.68
2022-11-16T18:52:59.493Z,80.50
2022-11-16T18:55:26.067Z,79.97
2022-11-16T18:57:52.579Z,80.04
2022-11-16T19:00:19.516Z,80.35
2022-11-16T19:02:46.056Z,80.26
2022-11-16T19:05:12.702Z,81.40
2022-11-16T19:07:39.312Z,80.48
2022-11-16T19:10:07.602Z,80.64
2022-11-16T19:12:34.135Z,80.62
2022-11-16T19:15:00.687Z,80.82
2022-11-16T19:17:27.612Z,80.91
2022-11-16T19:19:54.264Z,80.58
2022-11-16T19:22:20.904Z,80.21
2022-11-16T19:24:47.497Z,81.16
2022-11-16T19:27:14.061Z,81.65
2022-11-16T19:29:41.217Z,81.26
2022-11-16T19:32:07.807Z,81.19
2022-11-16T19:34:34.332Z,81.29
2022-11-16T19:37:01.072Z,81.86
2022-11-16T19:39:27.629Z,82.38
2022-11-16T19:41:54.167Z,81.77
2022-11-16T19:44:20.745Z,82.05
2022-11-16T19:46:47.395Z,82.62
2022-11-16T19:49:19.987Z,82.73
2022-11-16T19:51:46.908Z,82.74
2022-11-16T19:54:14.896Z,82.39
2022-11-16T19:56:42.807Z,82.56
2022-11-16T19:59:10.052Z,82.17
2022-11-16T20:01:36.649Z,82.31
2022-11-16T20:04:03.702Z,82.17
2022-11-16T20:09:09.594Z,82.21
2022-11-16T20:11:37.125Z,82.28
2022-11-16T20:14:06.010Z,82.45
2022-11-16T20:16:38.674Z,82.76
2022-11-16T20:19:08.704Z,82.14
2022-11-16T20:21:39.760Z,82.48
2022-11-16T20:24:09.024Z,82.18
2022-11-16T20:26:37.258Z,81.85
2022-11-16T20:29:03.938Z,82.57
2022-11-16T20:31:32.683Z,81.96
2022-11-16T20:34:01.599Z,82.57
2022-11-16T20:36:30.098Z,81.48
2022-11-16T20:38:57.539Z,81.85
2022-11-16T20:41:26.091Z,81.68
2022-11-16T20:43:54.471Z,82.08
2022-11-16T20:46:26.160Z,81.69
2022-11-16T20:48:52.974Z,81.93
2022-11-16T20:51:20.621Z,81.79
2022-11-16T20:53:48.480Z,82.48
2022-11-16T20:56:16.581Z,81.84
2022-11-16T20:58:43.432Z,81.67
2022-11-16T21:01:14.205Z,82.29
2022-11-16T21:03:42.489Z,81.65
2022-11-16T21:06:09.017Z,81.85
2022-11-16T21:08:37.253Z,82.54
2022-11-16T21:11:14.522Z,81.95
2022-11-16T21:14:01.293Z,82.31
2022-11-16T21:16:27.883Z,82.18
2022-11-16T21:18:55.607Z,81.68
2022-11-16T21:21:22.265Z,81.71
2022-11-16T21:23:52.375Z,81.83
2022-11-16T21:26:21.620Z,82.13
2022-11-16T21:28:48.229Z,82.00
2022-11-16T21:31:18.215Z,82.25
2022-11-16T21:33:45.693Z,82.01
2022-11-16T21:36:15.121Z,81.82
2022-11-16T21:38:42.126Z,81.83
2022-11-16T21:41:10.873Z,82.12
2022-11-16T21:43:40.292Z,81.45
2022-11-16T21:46:11.568Z,81.62
2022-11-16T21:48:38.624Z,81.87
2022-11-16T21:51:07.267Z,81.42
2022-11-16T21:53:34.692Z,82.47
2022-11-16T21:56:02.107Z,82.60
2022-11-16T21:58:28.838Z,81.86
2022-11-16T22:00:57.022Z,81.95
2022-11-16T22:03:25.686Z,81.71
2022-11-16T22:06:15.024Z,81.69
2022-11-16T22:08:42.024Z,81.89
2022-11-16T22:11:09.618Z,82.30
2022-11-16T22:13:37.376Z,81.68
2022-11-16T22:16:06.764Z,81.82
2022-11-16T22:18:33.635Z,82.03
2022-11-16T22:21:01.084Z,81.49
2022-11-16T22:23:27.850Z,81.72
2022-11-16T22:25:54.686Z,81.66
2022-11-16T22:28:21.704Z,81.49
2022-11-16T22:30:51.647Z,81.12
2022-11-16T22:33:18.651Z,81.19
2022-11-16T22:35:47.012Z,80.17
2022-11-16T22:38:13.539Z,81.35
2022-11-16T22:40:40.049Z,81.10
2022-11-16T22:43:06.577Z,80.82
2022-11-16T22:45:33.089Z,80.69
2022-11-16T22:47:59.657Z,80.77
2022-11-16T22:50:26.216Z,81.39
2022-11-16T22:52:52.794Z,81.01
2022-11-16T22:55:19.358Z,81.16
2022-11-16T22:57:45.903Z,80.99
2022-11-16T23:00:13.664Z,81.31
2022-11-16T23:02:40.353Z,81.11
2022-11-16T23:05:07.228Z,81.01
2022-11-16T23:07:33.930Z,80.74
2022-11-16T23:10:00.696Z,80.72
2022-11-16T23:12:47.160Z,81.13
2022-11-16T23:15:34.112Z,81.20
2022-11-16T23:18:00.681Z,80.83
2022-11-16T23:20:47.166Z,81.55
2022-11-16T23:23:39.591Z,80.95
2022-11-16T23:26:34.350Z,81.38
2022-11-16T23:29:02.829Z,81.41
2022-11-16T23:31:29.396Z,80.74
2022-11-16T23:33:55.941Z,80.99
2022-11-16T23:36:22.477Z,81.05
2022-11-16T23:38:49.113Z,80.70
2022-11-16T23:41:35.564Z,81.01
2022-11-16T23:44:02.204Z,81.45
2022-11-16T23:46:31.338Z,81.43
2022-11-16T23:48:58.045Z,81.37
2022-11-16T23:51:25.372Z,81.33
2022-11-16T23:53:52.889Z,81.16
2022-11-16T23:56:21.022Z,81.37
2022-11-16T23:58:48.253Z,81.70
